createdAt,value
2023-05-14T00:01:40.388Z,15.40
2023-05-14T00:04:07.269Z,14.90
2023-05-14T00:06:34.314Z,13.98
2023-05-14T00:09:01.162Z,12.45
2023-05-14T00:11:27.971Z,13.82
2023-05-14T00:13:54.786Z,13.52
2023-05-14T00:16:21.647Z,13.70
2023-05-14T00:18:48.591Z,14.32
2023-05-14T00:21:15.444Z,16.27
2023-05-14T00:23:42.456Z,15.65
2023-05-14T00:26:09.261Z,13.38
2023-05-14T00:28:38.359Z,13.57
2023-05-14T00:31:05.402Z,15.63
2023-05-14T00:33:32.653Z,14.30
2023-05-14T00:35:59.858Z,12.52
2023-05-14T00:38:28.400Z,15.05
2023-05-14T00:40:55.743Z,13.40
2023-05-14T00:43:23.140Z,15.20
2023-05-14T00:45:52.540Z,14.05
2023-05-14T00:48:21.475Z,13.60
2023-05-14T00:50:50.781Z,13.23
2023-05-14T00:53:20.024Z,12.98
2023-05-14T00:55:49.413Z,13.38
2023-05-14T00:58:17.652Z,13.57
2023-05-14T01:00:44.424Z,12.98
2023-05-14T01:03:11.688Z,14.43
2023-05-14T01:06:01.111Z,14.02
2023-05-14T01:08:59.122Z,16.20
2023-05-14T01:11:39.925Z,13.00
2023-05-14T01:14:34.028Z,13.55
2023-05-14T01:17:04.682Z,14.25
2023-05-14T01:19:42.547Z,13.25
2023-05-14T01:22:10.695Z,12.88
2023-05-14T01:24:38.044Z,13.63
2023-05-14T01:27:52.595Z,13.63
2023-05-14T01:30:35.689Z,12.93
2023-05-14T01:33:09.930Z,14.13
2023-05-14T01:35:37.643Z,14.90
2023-05-14T01:38:13.556Z,14.85
2023-05-14T01:40:41.807Z,14.98
2023-05-14T01:43:08.855Z,14.18
2023-05-14T01:45:37.435Z,12.32
2023-05-14T01:48:07.449Z,14.80
2023-05-14T01:50:34.498Z,15.77
2023-05-14T01:53:01.428Z,15.43
2023-05-14T01:55:28.445Z,15.93
2023-05-14T01:57:55.767Z,14.55
2023-05-14T02:00:26.019Z,14.15
2023-05-14T02:02:53.343Z,14.05
2023-05-14T02:05:21.030Z,15.05
2023-05-14T02:07:47.951Z,14.40
2023-05-14T02:10:16.065Z,14.90
2023-05-14T02:12:42.858Z,14.65
2023-05-14T02:15:11.059Z,15.15
2023-05-14T02:17:38.236Z,14.77
2023-05-14T02:20:06.038Z,15.25
2023-05-14T02:22:32.829Z,15.82
2023-05-14T02:24:59.832Z,15.68
2023-05-14T02:27:26.815Z,19.83
2023-05-14T02:29:53.726Z,18.00
2023-05-14T02:32:20.641Z,15.07
2023-05-14T02:34:47.419Z,16.42
2023-05-14T02:37:14.309Z,16.70
2023-05-14T02:39:41.169Z,13.63
2023-05-14T02:42:08.091Z,14.60
2023-05-14T02:44:35.059Z,14.73
2023-05-14T02:47:01.890Z,14.55
2023-05-14T02:49:28.761Z,14.98
2023-05-14T02:51:55.622Z,18.23
2023-05-14T02:54:22.481Z,16.92
2023-05-14T02:56:49.216Z,15.32
2023-05-14T02:59:16.019Z,16.58
2023-05-14T03:01:43.251Z,16.27
2023-05-14T03:04:10.717Z,15.18
2023-05-14T03:06:37.497Z,15.45
2023-05-14T03:09:04.297Z,15.32
2023-05-14T03:11:31.304Z,15.35
2023-05-14T03:13:58.141Z,15.25
2023-05-14T03:16:24.988Z,17.75
2023-05-14T03:18:51.891Z,19.00
2023-05-14T03:21:18.867Z,14.43
2023-05-14T03:23:45.738Z,18.13
2023-05-14T03:26:12.559Z,16.20
2023-05-14T03:28:40.782Z,17.05
2023-05-14T03:31:07.700Z,16.45
2023-05-14T03:33:34.570Z,14.30
2023-05-14T03:36:01.446Z,16.63
2023-05-14T03:38:28.283Z,16.98
2023-05-14T03:40:55.236Z,14.40
2023-05-14T03:43:22.044Z,16.38
2023-05-14T03:45:52.358Z,18.60
2023-05-14T03:48:20.188Z,17.25
2023-05-14T03:50:47.775Z,17.48
2023-05-14T03:53:14.548Z,16.95
2023-05-14T03:55:41.361Z,16.00
2023-05-14T03:58:14.097Z,17.20
2023-05-14T04:00:42.480Z,18.80
2023-05-14T04:03:11.097Z,15.55
2023-05-14T04:05:38.066Z,15.38
2023-05-14T04:08:05.783Z,16.52
2023-05-14T04:10:32.696Z,15.93
2023-05-14T04:13:00.493Z,17.88
2023-05-14T04:15:31.533Z,17.00
2023-05-14T04:17:58.408Z,15.63
2023-05-14T04:20:25.741Z,16.00
2023-05-14T04:22:53.908Z,16.02
2023-05-14T04:25:20.887Z,14.55
2023-05-14T04:27:47.896Z,17.15
2023-05-14T04:30:15.028Z,15.15
2023-05-14T04:32:41.866Z,14.27
2023-05-14T04:35:10.271Z,17.58
2023-05-14T04:37:37.281Z,17.73
2023-05-14T04:40:06.644Z,20.50
2023-05-14T04:42:34.026Z,15.90
2023-05-14T04:45:00.963Z,15.30
2023-05-14T04:47:27.770Z,15.75
2023-05-14T04:49:54.593Z,16.05
2023-05-14T04:52:21.484Z,17.60
2023-05-14T04:54:48.278Z,14.55
2023-05-14T04:57:15.174Z,14.95
2023-05-14T04:59:42.160Z,16.35
2023-05-14T05:02:09.011Z,18.52
2023-05-14T05:04:35.913Z,20.40
2023-05-14T05:07:02.714Z,14.32
2023-05-14T05:09:29.458Z,17.83
2023-05-14T05:11:56.339Z,16.08
2023-05-14T05:14:23.142Z,13.52
2023-05-14T05:16:51.105Z,17.25
2023-05-14T05:19:17.990Z,13.65
2023-05-14T05:21:45.619Z,17.55
2023-05-14T05:24:13.262Z,15.95
2023-05-14T05:26:40.172Z,15.07
2023-05-14T05:29:07.829Z,14.73
2023-05-14T05:31:34.766Z,13.65
2023-05-14T05:34:02.756Z,14.80
2023-05-14T05:36:29.557Z,16.23
2023-05-14T05:38:56.452Z,12.63
2023-05-14T05:41:23.334Z,13.88
2023-05-14T05:43:50.266Z,13.63
2023-05-14T05:46:17.160Z,13.88
2023-05-14T05:48:43.958Z,13.98
2023-05-14T05:51:11.381Z,15.70
2023-05-14T05:53:38.223Z,13.55
2023-05-14T05:56:06.284Z,17.40
2023-05-14T05:58:33.547Z,15.23
2023-05-14T06:01:01.214Z,21.75
2023-05-14T06:03:28.001Z,11.68
2023-05-14T06:05:54.780Z,15.25
2023-05-14T06:08:21.611Z,16.17
2023-05-14T06:10:48.447Z,13.32
2023-05-14T06:13:15.368Z,14.20
2023-05-14T06:15:42.221Z,13.32
2023-05-14T06:18:09.294Z,14.90
2023-05-14T06:20:36.285Z,14.45
2023-05-14T06:23:03.147Z,13.27
2023-05-14T06:25:30.009Z,14.20
2023-05-14T06:27:56.760Z,12.77
2023-05-14T06:30:23.783Z,12.07
2023-05-14T06:32:51.675Z,13.35
2023-05-14T06:35:19.231Z,17.48
2023-05-14T06:37:46.125Z,12.23
2023-05-14T06:40:15.733Z,14.65
2023-05-14T06:42:42.639Z,12.65
2023-05-14T06:45:10.106Z,11.70
2023-05-14T06:47:36.991Z,16.30
2023-05-14T06:50:04.245Z,13.35
2023-05-14T06:52:31.138Z,13.30
2023-05-14T06:54:58.045Z,13.15
2023-05-14T06:57:25.175Z,17.45
2023-05-14T06:59:52.151Z,16.92
2023-05-14T07:02:19.007Z,14.38
2023-05-14T07:04:46.525Z,11.48
2023-05-14T07:07:15.399Z,13.82
2023-05-14T07:09:42.656Z,13.20
2023-05-14T07:12:09.639Z,15.30
2023-05-14T07:14:36.450Z,13.43
2023-05-14T07:17:03.536Z,12.27
2023-05-14T07:19:30.502Z,14.27
2023-05-14T07:21:58.114Z,12.95
2023-05-14T07:24:25.001Z,13.38
2023-05-14T07:26:52.176Z,11.55
2023-05-14T07:29:19.021Z,12.20
2023-05-14T07:31:46.223Z,11.35
2023-05-14T07:34:13.069Z,11.25
2023-05-14T07:36:39.969Z,11.30
2023-05-14T07:39:06.922Z,10.32
2023-05-14T07:41:33.753Z,9.90
2023-05-14T07:44:00.648Z,8.13
2023-05-14T07:46:27.401Z,12.27
2023-05-14T07:48:54.277Z,9.02
2023-05-14T07:51:21.146Z,12.43
2023-05-14T07:53:47.996Z,8.93
2023-05-14T07:56:14.856Z,9.32
2023-05-14T07:58:41.656Z,8.18
2023-05-14T08:01:09.113Z,9.05
2023-05-14T08:03:35.991Z,9.52
2023-05-14T08:06:03.853Z,7.55
2023-05-14T08:08:30.893Z,14.30
2023-05-14T08:10:57.769Z,8.43
2023-05-14T08:13:24.653Z,8.68
2023-05-14T08:15:51.560Z,8.82
2023-05-14T08:18:18.395Z,8.23
2023-05-14T08:20:45.221Z,9.27
2023-05-14T08:23:12.669Z,9.13
2023-05-14T08:25:39.519Z,9.43
2023-05-14T08:28:07.897Z,7.35
2023-05-14T08:30:35.001Z,8.15
2023-05-14T08:33:01.880Z,6.22
2023-05-14T08:35:28.875Z,10.15
2023-05-14T08:37:57.014Z,8.18
2023-05-14T08:40:24.390Z,7.18
2023-05-14T08:42:52.892Z,8.15
2023-05-14T08:45:33.894Z,8.05
2023-05-14T08:48:05.623Z,6.68
2023-05-14T08:50:32.842Z,6.40
2023-05-14T08:52:59.626Z,7.53
2023-05-14T08:55:28.292Z,5.90
2023-05-14T08:57:56.088Z,11.23
2023-05-14T09:00:23.499Z,7.22
2023-05-14T09:02:51.933Z,7.45
2023-05-14T09:05:20.834Z,9.40
2023-05-14T09:07:47.909Z,9.32
2023-05-14T09:10:16.615Z,8.80
2023-05-14T09:12:43.524Z,7.85
2023-05-14T09:15:11.078Z,7.53
2023-05-14T09:17:37.972Z,9.45
2023-05-14T09:20:06.678Z,4.63
2023-05-14T09:22:35.024Z,6.53
2023-05-14T09:25:09.112Z,9.80
2023-05-14T09:27:37.198Z,10.20
2023-05-14T09:30:10.976Z,5.53
2023-05-14T09:32:48.241Z,9.23
2023-05-14T09:35:22.590Z,6.75
2023-05-14T09:37:54.809Z,6.15
2023-05-14T09:40:24.838Z,7.55
2023-05-14T09:42:52.132Z,7.88
2023-05-14T09:45:19.133Z,8.48
2023-05-14T09:47:46.468Z,5.95
2023-05-14T09:50:13.817Z,6.75
2023-05-14T09:52:40.786Z,12.27
2023-05-14T09:55:08.444Z,7.47
2023-05-14T09:57:35.655Z,4.30
2023-05-14T10:00:02.806Z,5.32
2023-05-14T10:02:38.862Z,8.73
2023-05-14T10:05:07.453Z,5.68
2023-05-14T10:07:57.620Z,6.32
2023-05-14T10:10:29.031Z,7.47
2023-05-14T10:13:08.771Z,7.43
2023-05-14T10:15:46.104Z,8.13
2023-05-14T10:18:19.703Z,6.18
2023-05-14T10:20:57.125Z,5.95
2023-05-14T10:23:24.188Z,4.97
2023-05-14T10:25:51.479Z,7.72
2023-05-14T10:28:18.791Z,8.90
2023-05-14T10:30:46.603Z,9.10
2023-05-14T10:33:16.572Z,6.47
2023-05-14T10:36:03.095Z,10.38
2023-05-14T10:38:33.833Z,7.10
2023-05-14T10:41:13.160Z,8.48
2023-05-14T10:43:42.139Z,8.98
2023-05-14T10:46:12.727Z,11.40
2023-05-14T10:48:43.096Z,6.75
2023-05-14T10:51:11.831Z,8.40
2023-05-14T10:53:41.892Z,8.13
2023-05-14T10:56:11.602Z,6.03
2023-05-14T10:58:42.209Z,11.43
2023-05-14T11:01:12.238Z,9.38
2023-05-14T11:03:45.183Z,7.80
2023-05-14T11:06:15.795Z,9.52
2023-05-14T11:08:43.842Z,6.00
2023-05-14T11:11:11.161Z,14.77
2023-05-14T11:13:38.634Z,8.77
2023-05-14T11:18:41.592Z,6.97
2023-05-14T11:21:08.681Z,9.38
2023-05-14T11:23:35.568Z,5.93
2023-05-14T11:26:02.500Z,9.30
2023-05-14T11:28:29.978Z,7.25
2023-05-14T11:30:56.811Z,7.40
2023-05-14T11:33:23.854Z,9.30
2023-05-14T11:35:50.691Z,7.70
2023-05-14T11:38:21.374Z,7.60
2023-05-14T11:40:59.605Z,7.57
2023-05-14T11:43:29.072Z,8.75
2023-05-14T11:45:56.820Z,9.07
2023-05-14T11:48:24.346Z,10.73
2023-05-14T11:50:53.183Z,6.38
2023-05-14T11:53:31.149Z,7.78
2023-05-14T11:55:58.176Z,10.27
2023-05-14T11:58:25.711Z,10.05
2023-05-14T12:00:55.160Z,6.43
2023-05-14T12:03:26.606Z,8.05
2023-05-14T12:06:08.120Z,7.80
2023-05-14T12:08:34.991Z,10.18
2023-05-14T12:11:02.091Z,11.35
2023-05-14T12:13:31.460Z,9.23
2023-05-14T12:16:02.184Z,9.25
2023-05-14T12:18:32.407Z,7.90
2023-05-14T12:21:04.443Z,7.88
2023-05-14T12:23:32.810Z,9.30
2023-05-14T12:26:06.372Z,8.75
2023-05-14T12:28:37.512Z,11.10
2023-05-14T12:31:05.427Z,8.68
2023-05-14T12:33:32.416Z,7.97
2023-05-14T12:36:10.045Z,8.55
2023-05-14T12:38:46.989Z,7.95
2023-05-14T12:41:13.871Z,10.15
2023-05-14T12:43:43.847Z,8.63
2023-05-14T12:46:11.127Z,9.02
2023-05-14T12:48:37.987Z,10.02
2023-05-14T12:51:04.803Z,8.73
2023-05-14T12:53:31.630Z,12.27
2023-05-14T12:55:58.505Z,11.50
2023-05-14T12:58:25.427Z,14.73
2023-05-14T13:00:52.375Z,8.63
2023-05-14T13:03:19.246Z,8.48
2023-05-14T13:05:46.061Z,12.10
2023-05-14T13:08:14.772Z,14.02
2023-05-14T13:10:41.604Z,10.70
2023-05-14T13:13:08.508Z,7.68
2023-05-14T13:15:36.296Z,7.82
2023-05-14T13:18:03.561Z,6.57
2023-05-14T13:20:31.076Z,6.32
2023-05-14T13:22:58.080Z,7.82
2023-05-14T13:25:25.029Z,11.00
2023-05-14T13:27:52.013Z,6.05
2023-05-14T13:30:19.881Z,8.00
2023-05-14T13:32:47.359Z,8.25
2023-05-14T13:35:14.684Z,6.97
2023-05-14T13:37:43.859Z,11.57
2023-05-14T13:40:11.556Z,9.95
2023-05-14T13:42:41.510Z,9.90
2023-05-14T13:45:09.347Z,6.22
2023-05-14T13:47:36.208Z,6.60
2023-05-14T13:50:03.440Z,5.75
2023-05-14T13:52:30.433Z,7.07
2023-05-14T13:54:57.272Z,7.40
2023-05-14T13:57:24.200Z,6.90
2023-05-14T13:59:51.126Z,5.90
2023-05-14T14:02:18.020Z,9.40
2023-05-14T14:04:44.840Z,5.88
2023-05-14T14:07:11.614Z,9.00
2023-05-14T14:09:38.482Z,6.68
2023-05-14T14:12:06.238Z,7.07
2023-05-14T14:14:33.132Z,5.45
2023-05-14T14:16:59.940Z,8.30
2023-05-14T14:19:26.758Z,12.48
2023-05-14T14:21:53.759Z,9.73
2023-05-14T14:24:20.585Z,6.53
2023-05-14T14:26:47.373Z,7.53
2023-05-14T14:29:14.258Z,5.30
2023-05-14T14:31:41.107Z,4.68
2023-05-14T14:34:07.956Z,7.70
2023-05-14T14:36:34.745Z,4.38
2023-05-14T14:39:01.529Z,8.55
2023-05-14T14:41:28.405Z,4.72
2023-05-14T14:43:55.261Z,4.78
2023-05-14T14:46:22.224Z,8.10
2023-05-14T14:48:49.245Z,6.28
2023-05-14T14:51:16.098Z,5.05
2023-05-14T14:53:43.104Z,6.53
2023-05-14T14:56:09.941Z,5.72
2023-05-14T14:58:36.970Z,4.20
2023-05-14T15:01:04.208Z,8.18
2023-05-14T15:03:31.453Z,6.13
2023-05-14T15:05:58.879Z,6.63
2023-05-14T15:08:27.975Z,5.38
2023-05-14T15:10:59.310Z,7.10
2023-05-14T15:13:26.957Z,6.40
2023-05-14T15:15:53.769Z,7.15
2023-05-14T15:18:20.849Z,6.88
2023-05-14T15:20:47.910Z,5.53
2023-05-14T15:23:14.781Z,7.30
2023-05-14T15:25:41.581Z,6.72
2023-05-14T15:28:08.516Z,8.25
2023-05-14T15:30:35.518Z,5.88
2023-05-14T15:33:02.548Z,5.15
2023-05-14T15:35:29.484Z,6.25
2023-05-14T15:37:59.478Z,6.40
2023-05-14T15:40:27.647Z,5.18
2023-05-14T15:42:54.683Z,10.32
2023-05-14T15:45:21.765Z,8.55
2023-05-14T15:47:48.689Z,9.85
2023-05-14T15:50:15.508Z,5.40
2023-05-14T15:52:42.445Z,7.03
2023-05-14T15:55:10.229Z,6.00
2023-05-14T15:57:37.371Z,6.63
2023-05-14T16:00:10.976Z,8.57
2023-05-14T16:02:39.677Z,5.28
2023-05-14T16:05:08.557Z,9.77
2023-05-14T16:07:36.183Z,9.68
2023-05-14T16:10:03.478Z,7.70
2023-05-14T16:12:30.479Z,9.23
2023-05-14T16:14:57.647Z,8.60
2023-05-14T16:17:24.776Z,10.07
2023-05-14T16:19:52.874Z,7.85
2023-05-14T16:22:21.559Z,8.75
2023-05-14T16:24:48.408Z,8.43
2023-05-14T16:27:15.551Z,8.05
2023-05-14T16:29:42.482Z,8.82
2023-05-14T16:32:09.316Z,9.63
2023-05-14T16:34:36.193Z,6.93
2023-05-14T16:37:03.248Z,5.68
2023-05-14T16:39:30.171Z,7.78
2023-05-14T16:41:56.910Z,7.88
2023-05-14T16:44:23.797Z,10.20
2023-05-14T16:46:51.180Z,10.32
2023-05-14T16:49:22.160Z,9.18
2023-05-14T16:51:49.196Z,8.77
2023-05-14T16:54:16.127Z,8.05
2023-05-14T16:56:47.779Z,11.00
2023-05-14T16:59:15.463Z,10.40
2023-05-14T17:01:43.647Z,7.90
2023-05-14T17:04:10.907Z,9.55
2023-05-14T17:06:37.980Z,8.40
2023-05-14T17:09:05.159Z,10.32
2023-05-14T17:11:31.912Z,8.65
2023-05-14T17:13:58.701Z,5.80
2023-05-14T17:16:25.975Z,9.05
2023-05-14T17:18:52.979Z,9.48
2023-05-14T17:21:19.848Z,8.02
2023-05-14T17:23:46.662Z,7.60
2023-05-14T17:26:13.576Z,9.20
2023-05-14T17:28:40.474Z,10.55
2023-05-14T17:31:07.576Z,7.35
2023-05-14T17:33:34.539Z,10.73
2023-05-14T17:36:01.661Z,10.52
2023-05-14T17:38:28.519Z,12.30
2023-05-14T17:40:55.589Z,9.98
2023-05-14T17:43:22.490Z,10.68
2023-05-14T17:45:54.341Z,15.18
2023-05-14T17:48:23.139Z,8.63
2023-05-14T17:50:51.633Z,11.90
2023-05-14T17:53:18.562Z,8.02
2023-05-14T17:55:45.474Z,10.50
2023-05-14T17:58:15.168Z,10.80
2023-05-14T18:00:43.265Z,13.07
2023-05-14T18:03:10.523Z,11.30
2023-05-14T18:05:37.624Z,9.07
2023-05-14T18:08:04.834Z,11.57
2023-05-14T18:10:31.940Z,13.40
2023-05-14T18:12:58.952Z,11.43
2023-05-14T18:15:27.142Z,11.45
2023-05-14T18:17:54.339Z,10.43
2023-05-14T18:20:21.315Z,12.52
2023-05-14T18:22:48.315Z,10.02
2023-05-14T18:25:15.606Z,9.25
2023-05-14T18:27:45.690Z,10.25
2023-05-14T18:30:14.821Z,10.25
2023-05-14T18:32:43.961Z,9.55
2023-05-14T18:35:12.541Z,11.15
2023-05-14T18:37:39.793Z,10.52
2023-05-14T18:40:07.742Z,12.07
2023-05-14T18:42:35.279Z,11.65
2023-05-14T18:45:02.659Z,9.07
2023-05-14T18:47:29.758Z,11.23
2023-05-14T18:49:58.900Z,11.93
2023-05-14T18:52:26.602Z,12.48
2023-05-14T18:54:54.768Z,10.43
2023-05-14T18:57:22.391Z,10.98
2023-05-14T18:59:49.378Z,10.90
2023-05-14T19:02:16.245Z,8.75
2023-05-14T19:04:52.343Z,11.85
2023-05-14T19:07:23.491Z,10.20
2023-05-14T19:09:50.468Z,8.32
2023-05-14T19:12:17.285Z,10.48
2023-05-14T19:14:44.193Z,11.23
2023-05-14T19:17:11.202Z,9.10
2023-05-14T19:19:39.231Z,10.13
2023-05-14T19:22:06.689Z,10.15
2023-05-14T19:24:33.716Z,10.38
2023-05-14T19:27:00.853Z,9.05
2023-05-14T19:29:27.638Z,8.93
2023-05-14T19:31:54.552Z,11.90
2023-05-14T19:34:21.466Z,9.52
2023-05-14T19:36:48.284Z,10.05
2023-05-14T19:39:15.077Z,11.18
2023-05-14T19:41:42.006Z,7.88
2023-05-14T19:44:08.779Z,11.18
2023-05-14T19:46:35.671Z,11.65
2023-05-14T19:49:02.541Z,9.27
2023-05-14T19:51:29.347Z,8.65
2023-05-14T19:53:56.213Z,10.07
2023-05-14T19:56:24.669Z,10.13
2023-05-14T19:58:52.515Z,11.75
2023-05-14T20:01:20.899Z,8.25
2023-05-14T20:03:48.473Z,10.15
2023-05-14T20:06:15.602Z,8.38
2023-05-14T20:08:42.522Z,11.90
2023-05-14T20:11:09.269Z,12.38
2023-05-14T20:13:36.410Z,9.40
2023-05-14T20:16:03.445Z,11.15
2023-05-14T20:18:30.367Z,8.68
2023-05-14T20:20:57.228Z,10.82
2023-05-14T20:23:24.154Z,13.48
2023-05-14T20:25:51.447Z,12.13
2023-05-14T20:28:18.254Z,11.05
2023-05-14T20:30:45.076Z,11.30
2023-05-14T20:33:13.279Z,10.15
2023-05-14T20:35:43.648Z,9.60
2023-05-14T20:38:12.548Z,9.43
2023-05-14T20:40:39.881Z,10.68
2023-05-14T20:43:06.668Z,12.60
2023-05-14T20:45:33.534Z,8.13
2023-05-14T20:48:00.442Z,11.23
2023-05-14T20:50:27.825Z,11.55
2023-05-14T20:52:55.690Z,10.68
2023-05-14T20:55:23.031Z,8.57
2023-05-14T20:57:50.444Z,10.70
2023-05-14T21:00:17.817Z,9.18
2023-05-14T21:02:44.922Z,9.35
2023-05-14T21:05:13.625Z,9.40
2023-05-14T21:07:40.512Z,10.32
2023-05-14T21:10:09.404Z,11.45
2023-05-14T21:12:36.299Z,10.52
2023-05-14T21:15:03.284Z,9.73
2023-05-14T21:17:30.630Z,10.95
2023-05-14T21:19:57.717Z,11.65
2023-05-14T21:22:24.721Z,10.88
2023-05-14T21:24:51.503Z,9.18
2023-05-14T21:27:18.483Z,10.52
2023-05-14T21:29:46.328Z,12.43
2023-05-14T21:32:13.191Z,11.50
2023-05-14T21:34:40.062Z,11.73
2023-05-14T21:37:07.165Z,10.25
2023-05-14T21:39:34.097Z,12.65
2023-05-14T21:42:00.836Z,11.10
2023-05-14T21:44:27.654Z,13.50
2023-05-14T21:46:54.557Z,13.13
2023-05-14T21:49:21.392Z,10.90
2023-05-14T21:51:52.798Z,10.82
2023-05-14T21:54:19.738Z,10.55
2023-05-14T21:56:46.844Z,13.50
2023-05-14T21:59:13.667Z,11.18
2023-05-14T22:02:00.640Z,11.52
2023-05-14T22:04:27.357Z,12.63
2023-05-14T22:06:54.153Z,12.57
2023-05-14T22:09:20.958Z,10.40
2023-05-14T22:11:47.741Z,15.20
2023-05-14T22:14:14.550Z,11.93
2023-05-14T22:16:41.409Z,11.25
2023-05-14T22:19:08.276Z,11.90
2023-05-14T22:21:35.091Z,14.07
2023-05-14T22:24:01.990Z,12.10
2023-05-14T22:26:28.968Z,14.32
2023-05-14T22:28:57.502Z,13.30
2023-05-14T22:31:24.428Z,14.05
2023-05-14T22:33:51.325Z,14.77
2023-05-14T22:36:18.055Z,15.70
2023-05-14T22:38:44.797Z,17.05
2023-05-14T22:41:12.225Z,13.95
2023-05-14T22:43:38.996Z,15.52
2023-05-14T22:46:06.111Z,17.50
2023-05-14T22:48:32.874Z,16.95
2023-05-14T22:50:59.684Z,16.83
2023-05-14T22:53:26.538Z,17.35
2023-05-14T22:55:53.582Z,15.63
2023-05-14T22:58:20.414Z,18.80
2023-05-14T23:00:47.228Z,18.85
2023-05-14T23:03:14.027Z,17.52
2023-05-14T23:05:40.919Z,17.23
2023-05-14T23:08:07.836Z,16.75
2023-05-14T23:10:37.458Z,19.88
2023-05-14T23:13:04.611Z,21.13
2023-05-14T23:15:32.593Z,18.55
2023-05-14T23:17:59.911Z,19.85
2023-05-14T23:20:26.796Z,20.13
2023-05-14T23:22:53.986Z,19.33
2023-05-14T23:25:20.799Z,18.27
2023-05-14T23:27:48.024Z,22.10
2023-05-14T23:30:14.843Z,22.45
2023-05-14T23:32:41.771Z,18.88
2023-05-14T23:35:09.251Z,20.80
2023-05-14T23:37:41.567Z,21.05
2023-05-14T23:40:09.572Z,21.65
2023-05-14T23:42:36.375Z,22.63
2023-05-14T23:45:03.655Z,23.80
2023-05-14T23:47:30.751Z,22.98
2023-05-14T23:49:57.581Z,23.67
2023-05-14T23:52:24.459Z,20.23
2023-05-14T23:54:51.264Z,22.73
2023-05-14T23:57:18.229Z,23.33
2023-05-14T23:59:45.014Z,23.30
